createdAt,value
2022-09-21T00:03:30.115Z,0
2022-09-21T00:10:10.404Z,0
2022-09-21T00:15:33.373Z,0
2022-09-21T00:20:55.530Z,0
2022-09-21T00:26:18.139Z,0
2022-09-21T00:31:42.361Z,0
2022-09-21T00:37:04.597Z,0
2022-09-21T00:47:49.252Z,0
2022-09-21T00:58:58.160Z,0
2022-09-21T01:04:20.622Z,0
2022-09-21T01:09:43.331Z,0
2022-09-21T01:15:22.978Z,0
2022-09-21T01:20:45.654Z,0
2022-09-21T01:26:17.010Z,0
2022-09-21T01:31:40.593Z,0
2022-09-21T01:37:06.244Z,0
2022-09-21T01:42:28.914Z,0
2022-09-21T01:48:00.178Z,0
2022-09-21T01:53:22.769Z,0
2022-09-21T01:58:45.084Z,0
2022-09-21T02:04:07.847Z,0
2022-09-21T02:14:41.067Z,0
2022-09-21T02:20:20.711Z,0
2022-09-21T02:25:43.435Z,0
2022-09-21T02:31:06.407Z,0
2022-09-21T02:36:29.074Z,0
2022-09-21T02:47:13.901Z,0
2022-09-21T02:52:38.582Z,0
2022-09-21T02:58:01.462Z,0
2022-09-21T03:04:08.749Z,0
2022-09-21T03:09:31.641Z,0
2022-09-21T03:14:54.197Z,0
2022-09-21T03:20:43.962Z,0
2022-09-21T03:26:06.816Z,0
2022-09-21T03:31:29.453Z,0
2022-09-21T03:36:52.079Z,0
2022-09-21T03:42:14.406Z,0
2022-09-21T03:47:37.063Z,0
2022-09-21T03:53:04.948Z,0
2022-09-21T03:58:27.300Z,0
2022-09-21T04:03:49.965Z,0
2022-09-21T04:09:15.268Z,0
2022-09-21T04:14:38.017Z,0
2022-09-21T04:25:23.250Z,0
2022-09-21T04:30:45.978Z,0
2022-09-21T04:36:13.356Z,0
2022-09-21T04:41:36.019Z,0
2022-09-21T04:46:59.013Z,0
2022-09-21T04:52:29.046Z,0
2022-09-21T04:57:51.654Z,0
2022-09-21T05:03:14.201Z,1
2022-09-21T05:08:48.191Z,12.1
2022-09-21T05:14:11.204Z,22
2022-09-21T05:19:34.487Z,35.1
2022-09-21T05:24:57.049Z,34.2
2022-09-21T05:30:19.901Z,43.6
2022-09-21T05:35:42.919Z,54.6
2022-09-21T05:41:05.444Z,76.4
2022-09-21T05:51:54.868Z,133.9
2022-09-21T06:35:36.050Z,180.7
2022-09-21T06:41:01.642Z,261.3
2022-09-21T06:46:33.296Z,275.8
2022-09-21T06:51:55.939Z,204.2
2022-09-21T06:57:18.527Z,191.3
2022-09-21T07:02:41.161Z,186.4
2022-09-21T07:08:05.597Z,200.1
2022-09-21T07:18:57.100Z,350.5
2022-09-21T07:24:36.414Z,454.2
2022-09-21T07:29:59.068Z,471
2022-09-21T07:35:21.736Z,630.3
2022-09-21T07:40:47.930Z,690.1
2022-09-21T07:46:11.288Z,763.8
2022-09-21T07:51:33.856Z,811.9
2022-09-21T07:56:56.703Z,895.5
2022-09-21T08:02:20.854Z,992
2022-09-21T08:13:08.912Z,751
2022-09-21T08:18:32.516Z,752.3
2022-09-21T08:23:56.574Z,2353.5
2022-09-21T08:29:19.885Z,4449.1
2022-09-21T08:34:45.816Z,1552
2022-09-21T08:40:08.199Z,3606.2
2022-09-21T08:45:35.096Z,3460
2022-09-21T08:50:57.506Z,2501
2022-09-21T08:56:22.361Z,3261.7
2022-09-21T09:02:06.658Z,2938.4
2022-09-21T09:07:30.146Z,2948.7
2022-09-21T09:17:59.585Z,2575.9
2022-09-21T09:23:23.222Z,2736.1
2022-09-21T09:28:53.407Z,2481.3
2022-09-21T09:34:18.501Z,3050.4
2022-09-21T09:50:32.139Z,3542.9
2022-09-21T09:55:55.913Z,3570.1
2022-09-21T10:06:47.508Z,3605.2
2022-09-21T10:12:13.033Z,3421.3
2022-09-21T10:17:43.987Z,3433.2
2022-09-21T10:23:06.799Z,3700
2022-09-21T10:28:44.505Z,3571.1
2022-09-21T10:34:19.593Z,3532.6
2022-09-21T10:39:42.615Z,3468.2
2022-09-21T10:45:05.300Z,3549.5
2022-09-21T10:50:27.489Z,3887.8
2022-09-21T10:56:17.286Z,3474
2022-09-21T11:01:39.109Z,1562.8
2022-09-21T11:12:29.543Z,3815.8
2022-09-21T11:18:21.523Z,3857.3
2022-09-21T11:23:44.632Z,4014.2
2022-09-21T11:29:07.592Z,2510.3
2022-09-21T11:34:31.123Z,838.8
2022-09-21T11:39:53.304Z,4800.2
2022-09-21T12:01:46.135Z,3895.8
2022-09-21T12:23:35.886Z,3632.5
2022-09-21T12:28:58.104Z,3130.6
2022-09-21T12:34:20.787Z,2526.9
2022-09-21T12:39:48.115Z,3921.4
2022-09-21T12:45:10.957Z,4037.1
2022-09-21T12:50:44.078Z,3578.4
2022-09-21T12:56:10.522Z,3388
2022-09-21T13:01:34.300Z,3156.5
2022-09-21T13:06:59.499Z,3130.5
2022-09-21T13:12:25.366Z,3183.3
2022-09-21T13:17:48.461Z,2783.9
2022-09-21T13:23:20.122Z,3127.9
2022-09-21T13:28:43.099Z,2705.8
2022-09-21T13:34:06.478Z,2456.1
2022-09-21T13:39:27.699Z,1723.2
2022-09-21T13:44:51.062Z,1791.4
2022-09-21T13:50:15.258Z,2494.5
2022-09-21T14:06:23.606Z,2282.9
2022-09-21T14:16:54.950Z,489.8
2022-09-21T14:22:17.196Z,2229.5
2022-09-21T14:27:47.333Z,2091.7
2022-09-21T14:33:11.614Z,2138.9
2022-09-21T14:38:37.295Z,2119.7
2022-09-21T14:44:00.082Z,1911.3
2022-09-21T14:49:21.871Z,1127.2
2022-09-21T14:54:43.010Z,273.7
2022-09-21T15:00:04.905Z,199.4
2022-09-21T15:05:38.319Z,195.8
2022-09-21T15:11:00.708Z,212.8
2022-09-21T15:16:23.628Z,191
2022-09-21T15:21:46.160Z,174.2
2022-09-21T15:27:10.314Z,171.1
2022-09-21T15:37:55.154Z,155.1
2022-09-21T15:43:20.063Z,150.7
2022-09-21T15:48:50.384Z,141.2
2022-09-21T15:54:12.989Z,141.5
2022-09-21T15:59:35.279Z,131.6
2022-09-21T16:10:23.340Z,120.9
2022-09-21T16:15:45.872Z,128.7
2022-09-21T16:21:08.291Z,111.9
2022-09-21T16:26:31.608Z,106.5
2022-09-21T16:31:54.250Z,105.1
2022-09-21T16:37:16.892Z,94
2022-09-21T16:42:39.231Z,86.8
2022-09-21T16:48:01.513Z,74.3
2022-09-21T16:53:23.922Z,65.4
2022-09-21T16:58:46.663Z,55.3
2022-09-21T17:04:09.074Z,48.8
2022-09-21T17:09:32.252Z,47.7
2022-09-21T17:14:54.774Z,48.2
2022-09-21T17:20:17.133Z,35.1
2022-09-21T17:36:27.221Z,19
2022-09-21T17:41:51.871Z,11
2022-09-21T17:47:14.722Z,3
2022-09-21T17:52:37.873Z,0
2022-09-21T18:01:09.222Z,0
2022-09-21T18:06:32.622Z,0
2022-09-21T18:11:55.233Z,0
2022-09-21T18:33:17.598Z,0
2022-09-21T18:38:44.372Z,0
2022-09-21T18:44:07.319Z,0
2022-09-21T18:49:46.945Z,0
2022-09-21T18:55:09.730Z,0
2022-09-21T19:00:32.154Z,0
2022-09-21T19:11:37.931Z,0
2022-09-21T19:17:07.696Z,0
2022-09-21T19:22:35.652Z,0
2022-09-21T19:27:58.444Z,0
2022-09-21T19:33:51.605Z,0
2022-09-21T19:39:14.743Z,0
2022-09-21T19:44:51.161Z,0
2022-09-21T19:50:26.962Z,0
2022-09-21T19:55:49.601Z,0
2022-09-21T20:01:12.914Z,0
2022-09-21T20:11:38.954Z,0
2022-09-21T20:17:02.036Z,0
2022-09-21T20:22:24.589Z,0
2022-09-21T20:27:58.457Z,0
2022-09-21T20:33:20.869Z,0
2022-09-21T20:44:12.194Z,0
2022-09-21T20:49:51.255Z,0
2022-09-21T20:55:14.205Z,0
2022-09-21T21:00:36.796Z,0
2022-09-21T21:05:59.519Z,0
2022-09-21T21:11:22.503Z,0
2022-09-21T21:16:54.514Z,0
2022-09-21T21:27:35.421Z,0
2022-09-21T21:33:07.155Z,0
2022-09-21T21:38:29.656Z,0
2022-09-21T21:43:53.362Z,0
2022-09-21T21:49:16.046Z,0
2022-09-21T22:05:26.401Z,0
2022-09-21T22:10:48.836Z,0
2022-09-21T22:16:12.273Z,0
2022-09-21T22:21:34.833Z,0
2022-09-21T22:26:57.096Z,0
2022-09-21T22:32:19.634Z,0
2022-09-21T22:37:42.045Z,0
2022-09-21T22:48:35.932Z,0
2022-09-21T22:53:58.852Z,0
2022-09-21T22:59:21.142Z,0
2022-09-21T23:04:43.742Z,0
2022-09-21T23:10:06.616Z,0
2022-09-21T23:15:28.891Z,0
2022-09-21T23:20:51.388Z,0
2022-09-21T23:26:13.979Z,0
2022-09-21T23:31:45.943Z,0
2022-09-21T23:47:54.596Z,0
2022-09-21T23:53:19.992Z,0
2022-09-21T23:58:43.053Z,0
